sensor_id;sensor_type;location;lat;lon;timestamp;temperature;humidity
10905;DHT22;5505;51.450;9.254;2023-05-15T00:01:17;12.50;99.90
10905;DHT22;5505;51.450;9.254;2023-05-15T00:04:04;9.20;99.90
10905;DHT22;5505;51.450;9.254;2023-05-15T00:06:51;9.20;99.90
10905;DHT22;5505;51.450;9.254;2023-05-15T00:09:37;9.10;99.90
10905;DHT22;5505;51.450;9.254;2023-05-15T00:12:24;9.00;99.90
10905;DHT22;5505;51.450;9.254;2023-05-15T00:15:13;9.10;99.90
10905;DHT22;5505;51.450;9.254;2023-05-15T00:17:59;8.90;99.90
10905;DHT22;5505;51.450;9.254;2023-05-15T00:20:46;8.80;99.90
10905;DHT22;5505;51.450;9.254;2023-05-15T00:23:33;8.80;99.90
10905;DHT22;5505;51.450;9.254;2023-05-15T00:26:22;8.80;99.90
10905;DHT22;5505;51.450;9.254;2023-05-15T00:29:09;8.90;99.90
10905;DHT22;5505;51.450;9.254;2023-05-15T00:31:57;8.80;99.90
10905;DHT22;5505;51.450;9.254;2023-05-15T00:34:44;8.60;99.90
10905;DHT22;5505;51.450;9.254;2023-05-15T00:37:31;8.70;99.90
10905;DHT22;5505;51.450;9.254;2023-05-15T00:40:20;8.60;99.90
10905;DHT22;5505;51.450;9.254;2023-05-15T00:43:07;8.60;99.90
10905;DHT22;5505;51.450;9.254;2023-05-15T00:45:56;8.70;99.90
10905;DHT22;5505;51.450;9.254;2023-05-15T00:48:46;8.60;99.90
10905;DHT22;5505;51.450;9.254;2023-05-15T00:51:34;8.60;99.90
10905;DHT22;5505;51.450;9.254;2023-05-15T00:54:21;8.50;99.90
10905;DHT22;5505;51.450;9.254;2023-05-15T00:57:08;8.40;99.90
10905;DHT22;5505;51.450;9.254;2023-05-15T00:59:56;8.40;99.90
10905;DHT22;5505;51.450;9.254;2023-05-15T01:02:43;8.40;99.90
10905;DHT22;5505;51.450;9.254;2023-05-15T01:05:31;8.40;99.90
10905;DHT22;5505;51.450;9.254;2023-05-15T01:08:22;8.40;99.90
10905;DHT22;5505;51.450;9.254;2023-05-15T01:11:09;8.40;99.90
10905;DHT22;5505;51.450;9.254;2023-05-15T01:13:57;9.50;99.90
10905;DHT22;5505;51.450;9.254;2023-05-15T01:16:44;8.60;99.90
10905;DHT22;5505;51.450;9.254;2023-05-15T01:19:30;8.50;99.90
10905;DHT22;5505;51.450;9.254;2023-05-15T01:22:38;8.40;99.90
10905;DHT22;5505;51.450;9.254;2023-05-15T01:25:55;8.30;99.90
10905;DHT22;5505;51.450;9.254;2023-05-15T01:28:55;8.30;99.90
10905;DHT22;5505;51.450;9.254;2023-05-15T01:31:47;8.30;99.90
10905;DHT22;5505;51.450;9.254;2023-05-15T01:34:42;8.30;99.90
10905;DHT22;5505;51.450;9.254;2023-05-15T01:37:31;8.30;99.90
10905;DHT22;5505;51.450;9.254;2023-05-15T01:40:22;8.30;99.90
10905;DHT22;5505;51.450;9.254;2023-05-15T01:43:14;8.30;99.90
10905;DHT22;5505;51.450;9.254;2023-05-15T01:46:05;8.30;99.90
10905;DHT22;5505;51.450;9.254;2023-05-15T01:48:53;8.30;99.90
10905;DHT22;5505;51.450;9.254;2023-05-15T01:51:41;8.20;99.90
10905;DHT22;5505;51.450;9.254;2023-05-15T01:54:30;8.30;99.90
10905;DHT22;5505;51.450;9.254;2023-05-15T01:57:18;8.30;99.90
10905;DHT22;5505;51.450;9.254;2023-05-15T02:00:10;8.30;99.90
10905;DHT22;5505;51.450;9.254;2023-05-15T02:03:01;8.30;99.90
10905;DHT22;5505;51.450;9.254;2023-05-15T02:05:49;8.30;99.90
10905;DHT22;5505;51.450;9.254;2023-05-15T02:08:38;8.30;99.90
10905;DHT22;5505;51.450;9.254;2023-05-15T02:11:26;8.40;99.90
10905;DHT22;5505;51.450;9.254;2023-05-15T02:14:14;8.30;99.90
10905;DHT22;5505;51.450;9.254;2023-05-15T02:17:01;8.30;99.90
10905;DHT22;5505;51.450;9.254;2023-05-15T02:19:49;8.30;99.90
10905;DHT22;5505;51.450;9.254;2023-05-15T02:22:36;8.70;99.90
10905;DHT22;5505;51.450;9.254;2023-05-15T02:25:31;8.10;99.90
10905;DHT22;5505;51.450;9.254;2023-05-15T02:28:25;7.80;99.90
10905;DHT22;5505;51.450;9.254;2023-05-15T02:31:20;7.70;99.90
10905;DHT22;5505;51.450;9.254;2023-05-15T02:34:16;7.60;99.90
10905;DHT22;5505;51.450;9.254;2023-05-15T02:37:10;7.60;99.90
10905;DHT22;5505;51.450;9.254;2023-05-15T02:39:57;7.60;99.90
10905;DHT22;5505;51.450;9.254;2023-05-15T02:42:47;7.60;99.90
10905;DHT22;5505;51.450;9.254;2023-05-15T02:45:35;7.70;99.90
10905;DHT22;5505;51.450;9.254;2023-05-15T02:48:22;7.70;99.90
10905;DHT22;5505;51.450;9.254;2023-05-15T02:51:11;7.60;99.90
10905;DHT22;5505;51.450;9.254;2023-05-15T02:54:00;7.60;99.90
10905;DHT22;5505;51.450;9.254;2023-05-15T02:56:47;7.50;99.90
10905;DHT22;5505;51.450;9.254;2023-05-15T02:59:34;7.40;99.90
10905;DHT22;5505;51.450;9.254;2023-05-15T03:02:21;7.40;99.90
10905;DHT22;5505;51.450;9.254;2023-05-15T03:05:08;8.50;99.90
10905;DHT22;5505;51.450;9.254;2023-05-15T03:07:56;7.30;99.90
10905;DHT22;5505;51.450;9.254;2023-05-15T03:10:44;7.30;99.90
10905;DHT22;5505;51.450;9.254;2023-05-15T03:13:31;7.40;99.90
10905;DHT22;5505;51.450;9.254;2023-05-15T03:16:18;7.40;99.90
10905;DHT22;5505;51.450;9.254;2023-05-15T03:19:04;7.40;99.90
10905;DHT22;5505;51.450;9.254;2023-05-15T03:21:51;7.50;99.90
10905;DHT22;5505;51.450;9.254;2023-05-15T03:24:38;7.50;99.90
10905;DHT22;5505;51.450;9.254;2023-05-15T03:27:26;7.60;99.90
10905;DHT22;5505;51.450;9.254;2023-05-15T03:30:13;7.60;99.90
10905;DHT22;5505;51.450;9.254;2023-05-15T03:33:00;8.30;99.90
10905;DHT22;5505;51.450;9.254;2023-05-15T03:35:48;7.60;99.90
10905;DHT22;5505;51.450;9.254;2023-05-15T03:38:36;7.70;99.90
10905;DHT22;5505;51.450;9.254;2023-05-15T03:41:23;7.70;99.90
10905;DHT22;5505;51.450;9.254;2023-05-15T03:44:11;7.70;99.90
10905;DHT22;5505;51.450;9.254;2023-05-15T03:46:58;7.70;99.90
10905;DHT22;5505;51.450;9.254;2023-05-15T03:49:45;7.70;99.90
10905;DHT22;5505;51.450;9.254;2023-05-15T03:52:32;7.70;99.90
10905;DHT22;5505;51.450;9.254;2023-05-15T03:55:19;7.80;99.90
10905;DHT22;5505;51.450;9.254;2023-05-15T03:58:05;7.80;99.90
10905;DHT22;5505;51.450;9.254;2023-05-15T04:00:53;7.80;99.90
10905;DHT22;5505;51.450;9.254;2023-05-15T04:03:40;7.80;99.90
10905;DHT22;5505;51.450;9.254;2023-05-15T04:06:27;7.90;99.90
10905;DHT22;5505;51.450;9.254;2023-05-15T04:09:14;8.10;99.90
10905;DHT22;5505;51.450;9.254;2023-05-15T04:12:00;8.00;99.90
10905;DHT22;5505;51.450;9.254;2023-05-15T04:14:47;8.00;99.90
10905;DHT22;5505;51.450;9.254;2023-05-15T04:17:35;8.10;99.90
10905;DHT22;5505;51.450;9.254;2023-05-15T04:20:23;8.10;99.90
10905;DHT22;5505;51.450;9.254;2023-05-15T04:23:10;8.20;99.90
10905;DHT22;5505;51.450;9.254;2023-05-15T04:25:57;8.20;99.90
10905;DHT22;5505;51.450;9.254;2023-05-15T04:28:44;8.30;99.90
10905;DHT22;5505;51.450;9.254;2023-05-15T04:31:33;8.40;99.90
10905;DHT22;5505;51.450;9.254;2023-05-15T04:34:21;8.40;99.90
10905;DHT22;5505;51.450;9.254;2023-05-15T04:37:09;9.20;99.90
10905;DHT22;5505;51.450;9.254;2023-05-15T04:39:56;8.60;99.90
10905;DHT22;5505;51.450;9.254;2023-05-15T04:42:43;8.80;99.90
10905;DHT22;5505;51.450;9.254;2023-05-15T04:45:30;8.90;99.90
10905;DHT22;5505;51.450;9.254;2023-05-15T04:48:16;9.00;99.90
10905;DHT22;5505;51.450;9.254;2023-05-15T04:51:05;9.10;99.90
10905;DHT22;5505;51.450;9.254;2023-05-15T04:53:52;9.30;99.90
10905;DHT22;5505;51.450;9.254;2023-05-15T04:56:38;9.40;99.90
10905;DHT22;5505;51.450;9.254;2023-05-15T04:59:25;9.50;99.90
10905;DHT22;5505;51.450;9.254;2023-05-15T05:02:13;9.70;99.90
10905;DHT22;5505;51.450;9.254;2023-05-15T05:04:59;9.80;99.90
10905;DHT22;5505;51.450;9.254;2023-05-15T05:07:47;10.40;99.90
10905;DHT22;5505;51.450;9.254;2023-05-15T05:10:36;10.00;99.90
10905;DHT22;5505;51.450;9.254;2023-05-15T05:13:23;10.10;99.90
10905;DHT22;5505;51.450;9.254;2023-05-15T05:16:09;10.20;99.90
10905;DHT22;5505;51.450;9.254;2023-05-15T05:18:56;10.30;99.90
10905;DHT22;5505;51.450;9.254;2023-05-15T05:21:43;10.40;99.90
10905;DHT22;5505;51.450;9.254;2023-05-15T05:24:31;10.50;99.90
10905;DHT22;5505;51.450;9.254;2023-05-15T05:27:19;10.60;99.90
10905;DHT22;5505;51.450;9.254;2023-05-15T05:30:07;10.70;99.90
10905;DHT22;5505;51.450;9.254;2023-05-15T05:32:54;10.80;99.90
10905;DHT22;5505;51.450;9.254;2023-05-15T05:35:41;10.80;99.90
10905;DHT22;5505;51.450;9.254;2023-05-15T05:38:27;10.80;99.90
10905;DHT22;5505;51.450;9.254;2023-05-15T05:41:16;10.80;99.90
10905;DHT22;5505;51.450;9.254;2023-05-15T05:44:03;12.10;99.90
10905;DHT22;5505;51.450;9.254;2023-05-15T05:46:51;10.80;99.90
10905;DHT22;5505;51.450;9.254;2023-05-15T05:49:38;10.90;99.90
10905;DHT22;5505;51.450;9.254;2023-05-15T05:52:25;10.90;99.90
10905;DHT22;5505;51.450;9.254;2023-05-15T05:55:13;10.90;99.90
10905;DHT22;5505;51.450;9.254;2023-05-15T05:58:01;10.90;99.90
10905;DHT22;5505;51.450;9.254;2023-05-15T06:00:48;10.90;99.90
10905;DHT22;5505;51.450;9.254;2023-05-15T06:03:36;10.90;99.90
10905;DHT22;5505;51.450;9.254;2023-05-15T06:06:23;10.90;99.90
10905;DHT22;5505;51.450;9.254;2023-05-15T06:09:10;12.30;99.90
10905;DHT22;5505;51.450;9.254;2023-05-15T06:11:57;10.90;99.90
10905;DHT22;5505;51.450;9.254;2023-05-15T06:14:46;11.00;99.90
10905;DHT22;5505;51.450;9.254;2023-05-15T06:17:33;11.00;99.90
10905;DHT22;5505;51.450;9.254;2023-05-15T06:20:19;11.00;99.90
10905;DHT22;5505;51.450;9.254;2023-05-15T06:23:07;11.00;99.90
10905;DHT22;5505;51.450;9.254;2023-05-15T06:25:54;11.50;99.90
10905;DHT22;5505;51.450;9.254;2023-05-15T06:28:41;11.10;99.90
10905;DHT22;5505;51.450;9.254;2023-05-15T06:31:29;11.10;99.90
10905;DHT22;5505;51.450;9.254;2023-05-15T06:34:16;11.20;99.90
10905;DHT22;5505;51.450;9.254;2023-05-15T06:37:03;11.30;99.90
10905;DHT22;5505;51.450;9.254;2023-05-15T06:39:50;11.40;99.90
10905;DHT22;5505;51.450;9.254;2023-05-15T06:42:36;11.50;99.90
10905;DHT22;5505;51.450;9.254;2023-05-15T06:45:23;11.60;99.90
10905;DHT22;5505;51.450;9.254;2023-05-15T06:48:12;11.70;99.90
10905;DHT22;5505;51.450;9.254;2023-05-15T06:50:59;11.90;99.90
10905;DHT22;5505;51.450;9.254;2023-05-15T06:53:46;12.10;99.90
10905;DHT22;5505;51.450;9.254;2023-05-15T06:56:33;13.00;99.90
10905;DHT22;5505;51.450;9.254;2023-05-15T06:59:20;12.40;99.90
10905;DHT22;5505;51.450;9.254;2023-05-15T07:02:06;12.50;99.90
10905;DHT22;5505;51.450;9.254;2023-05-15T07:04:54;12.70;99.90
10905;DHT22;5505;51.450;9.254;2023-05-15T07:07:41;12.90;99.90
10905;DHT22;5505;51.450;9.254;2023-05-15T07:10:28;13.20;99.90
10905;DHT22;5505;51.450;9.254;2023-05-15T07:13:15;13.40;99.90
10905;DHT22;5505;51.450;9.254;2023-05-15T07:16:02;13.60;99.90
10905;DHT22;5505;51.450;9.254;2023-05-15T07:18:49;13.90;99.90
10905;DHT22;5505;51.450;9.254;2023-05-15T07:21:37;14.10;99.90
10905;DHT22;5505;51.450;9.254;2023-05-15T07:24:24;14.30;99.90
10905;DHT22;5505;51.450;9.254;2023-05-15T07:27:11;14.40;99.90
10905;DHT22;5505;51.450;9.254;2023-05-15T07:29:58;14.50;99.90
10905;DHT22;5505;51.450;9.254;2023-05-15T07:32:45;14.70;99.90
10905;DHT22;5505;51.450;9.254;2023-05-15T07:35:32;14.90;99.90
10905;DHT22;5505;51.450;9.254;2023-05-15T07:38:20;14.90;99.90
10905;DHT22;5505;51.450;9.254;2023-05-15T07:41:07;15.20;99.90
10905;DHT22;5505;51.450;9.254;2023-05-15T07:43:53;15.30;99.90
10905;DHT22;5505;51.450;9.254;2023-05-15T07:46:42;15.40;99.90
10905;DHT22;5505;51.450;9.254;2023-05-15T07:49:29;15.60;99.90
10905;DHT22;5505;51.450;9.254;2023-05-15T07:52:16;15.70;99.90
10905;DHT22;5505;51.450;9.254;2023-05-15T07:55:05;16.20;99.90
10905;DHT22;5505;51.450;9.254;2023-05-15T07:57:52;16.00;99.90
10905;DHT22;5505;51.450;9.254;2023-05-15T08:00:39;16.00;99.90
10905;DHT22;5505;51.450;9.254;2023-05-15T08:03:25;16.10;99.90
10905;DHT22;5505;51.450;9.254;2023-05-15T08:06:12;16.20;99.90
10905;DHT22;5505;51.450;9.254;2023-05-15T08:08:59;16.40;99.90
10905;DHT22;5505;51.450;9.254;2023-05-15T08:11:48;16.50;99.90
10905;DHT22;5505;51.450;9.254;2023-05-15T08:14:34;16.70;99.90
10905;DHT22;5505;51.450;9.254;2023-05-15T08:17:21;16.90;99.90
10905;DHT22;5505;51.450;9.254;2023-05-15T08:20:09;17.10;99.90
10905;DHT22;5505;51.450;9.254;2023-05-15T08:22:56;17.20;99.90
10905;DHT22;5505;51.450;9.254;2023-05-15T08:25:42;17.20;99.90
10905;DHT22;5505;51.450;9.254;2023-05-15T08:28:30;17.20;99.90
10905;DHT22;5505;51.450;9.254;2023-05-15T08:31:18;17.80;99.90
10905;DHT22;5505;51.450;9.254;2023-05-15T08:34:05;17.60;99.90
10905;DHT22;5505;51.450;9.254;2023-05-15T08:36:51;17.70;99.90
10905;DHT22;5505;51.450;9.254;2023-05-15T08:39:38;17.80;99.90
10905;DHT22;5505;51.450;9.254;2023-05-15T08:42:31;18.00;99.90
10905;DHT22;5505;51.450;9.254;2023-05-15T08:45:23;18.00;99.90
10905;DHT22;5505;51.450;9.254;2023-05-15T08:48:12;18.00;99.90
10905;DHT22;5505;51.450;9.254;2023-05-15T08:50:59;18.10;99.90
10905;DHT22;5505;51.450;9.254;2023-05-15T08:53:47;18.20;99.90
10905;DHT22;5505;51.450;9.254;2023-05-15T08:56:34;18.20;99.90
10905;DHT22;5505;51.450;9.254;2023-05-15T08:59:21;18.00;99.90
10905;DHT22;5505;51.450;9.254;2023-05-15T09:02:10;17.90;99.90
10905;DHT22;5505;51.450;9.254;2023-05-15T09:04:56;17.70;99.90
10905;DHT22;5505;51.450;9.254;2023-05-15T09:07:44;17.70;99.90
10905;DHT22;5505;51.450;9.254;2023-05-15T09:10:33;18.00;99.90
10905;DHT22;5505;51.450;9.254;2023-05-15T09:13:20;18.20;99.90
10905;DHT22;5505;51.450;9.254;2023-05-15T09:16:07;18.30;99.90
10905;DHT22;5505;51.450;9.254;2023-05-15T09:18:57;18.30;99.90
10905;DHT22;5505;51.450;9.254;2023-05-15T09:21:44;18.40;99.90
10905;DHT22;5505;51.450;9.254;2023-05-15T09:24:31;18.60;99.90
10905;DHT22;5505;51.450;9.254;2023-05-15T09:27:23;18.70;99.90
10905;DHT22;5505;51.450;9.254;2023-05-15T09:30:11;18.90;99.90
10905;DHT22;5505;51.450;9.254;2023-05-15T09:32:59;19.00;99.90
10905;DHT22;5505;51.450;9.254;2023-05-15T09:35:49;19.20;99.90
10905;DHT22;5505;51.450;9.254;2023-05-15T09:38:40;19.00;99.90
10905;DHT22;5505;51.450;9.254;2023-05-15T09:41:27;18.90;99.90
10905;DHT22;5505;51.450;9.254;2023-05-15T09:44:17;19.10;99.90
10905;DHT22;5505;51.450;9.254;2023-05-15T09:47:05;19.20;99.90
10905;DHT22;5505;51.450;9.254;2023-05-15T09:49:52;19.20;99.90
10905;DHT22;5505;51.450;9.254;2023-05-15T09:52:40;19.20;99.90
10905;DHT22;5505;51.450;9.254;2023-05-15T09:55:27;19.20;99.90
10905;DHT22;5505;51.450;9.254;2023-05-15T09:58:15;19.10;99.90
10905;DHT22;5505;51.450;9.254;2023-05-15T10:01:02;19.10;99.90
10905;DHT22;5505;51.450;9.254;2023-05-15T10:03:58;19.00;99.90
10905;DHT22;5505;51.450;9.254;2023-05-15T10:06:46;19.00;99.90
10905;DHT22;5505;51.450;9.254;2023-05-15T10:09:34;19.10;99.90
10905;DHT22;5505;51.450;9.254;2023-05-15T10:12:22;19.00;99.90
10905;DHT22;5505;51.450;9.254;2023-05-15T10:15:10;19.10;99.90
10905;DHT22;5505;51.450;9.254;2023-05-15T10:17:58;19.20;99.90
10905;DHT22;5505;51.450;9.254;2023-05-15T10:20:45;19.70;99.90
10905;DHT22;5505;51.450;9.254;2023-05-15T10:23:33;19.30;99.90
10905;DHT22;5505;51.450;9.254;2023-05-15T10:26:30;19.40;99.90
10905;DHT22;5505;51.450;9.254;2023-05-15T10:29:20;19.50;99.90
10905;DHT22;5505;51.450;9.254;2023-05-15T10:32:08;19.80;99.90
10905;DHT22;5505;51.450;9.254;2023-05-15T10:34:56;19.50;99.90
10905;DHT22;5505;51.450;9.254;2023-05-15T10:37:44;19.60;99.90
10905;DHT22;5505;51.450;9.254;2023-05-15T10:40:35;19.70;99.90
10905;DHT22;5505;51.450;9.254;2023-05-15T10:43:26;19.80;99.90
10905;DHT22;5505;51.450;9.254;2023-05-15T10:46:15;19.60;99.90
10905;DHT22;5505;51.450;9.254;2023-05-15T10:49:02;20.40;99.90
10905;DHT22;5505;51.450;9.254;2023-05-15T10:51:51;19.00;99.90
10905;DHT22;5505;51.450;9.254;2023-05-15T10:54:38;18.80;99.90
10905;DHT22;5505;51.450;9.254;2023-05-15T10:57:27;19.60;99.90
10905;DHT22;5505;51.450;9.254;2023-05-15T11:00:26;18.60;99.90
10905;DHT22;5505;51.450;9.254;2023-05-15T11:03:34;18.60;99.90
10905;DHT22;5505;51.450;9.254;2023-05-15T11:06:27;18.60;99.90
10905;DHT22;5505;51.450;9.254;2023-05-15T11:09:35;18.60;99.90
10905;DHT22;5505;51.450;9.254;2023-05-15T11:12:22;19.30;99.90
10905;DHT22;5505;51.450;9.254;2023-05-15T11:15:19;18.70;99.90
10905;DHT22;5505;51.450;9.254;2023-05-15T11:18:07;18.70;99.90
10905;DHT22;5505;51.450;9.254;2023-05-15T11:21:06;18.90;99.90
10905;DHT22;5505;51.450;9.254;2023-05-15T11:24:02;18.90;99.90
10905;DHT22;5505;51.450;9.254;2023-05-15T11:26:51;18.90;99.90
10905;DHT22;5505;51.450;9.254;2023-05-15T11:30:06;19.00;99.90
10905;DHT22;5505;51.450;9.254;2023-05-15T11:32:55;19.10;99.90
10905;DHT22;5505;51.450;9.254;2023-05-15T11:35:47;19.20;99.90
10905;DHT22;5505;51.450;9.254;2023-05-15T11:38:38;19.20;99.90
10905;DHT22;5505;51.450;9.254;2023-05-15T11:41:30;19.20;99.90
10905;DHT22;5505;51.450;9.254;2023-05-15T11:44:19;19.20;99.90
10905;DHT22;5505;51.450;9.254;2023-05-15T11:47:08;19.20;99.90
10905;DHT22;5505;51.450;9.254;2023-05-15T11:49:56;18.90;99.90
10905;DHT22;5505;51.450;9.254;2023-05-15T11:52:44;19.20;99.90
10905;DHT22;5505;51.450;9.254;2023-05-15T11:55:32;18.40;99.90
10905;DHT22;5505;51.450;9.254;2023-05-15T11:58:22;18.20;99.90
10905;DHT22;5505;51.450;9.254;2023-05-15T12:01:09;18.10;99.90
10905;DHT22;5505;51.450;9.254;2023-05-15T12:03:56;17.90;99.90
10905;DHT22;5505;51.450;9.254;2023-05-15T12:06:44;17.80;99.90
10905;DHT22;5505;51.450;9.254;2023-05-15T12:09:33;17.60;99.90
10905;DHT22;5505;51.450;9.254;2023-05-15T12:12:20;17.50;99.90
10905;DHT22;5505;51.450;9.254;2023-05-15T12:15:12;17.40;99.90
10905;DHT22;5505;51.450;9.254;2023-05-15T12:18:02;17.50;99.90
10905;DHT22;5505;51.450;9.254;2023-05-15T12:20:51;17.50;99.90
10905;DHT22;5505;51.450;9.254;2023-05-15T12:23:38;17.50;99.90
10905;DHT22;5505;51.450;9.254;2023-05-15T12:26:27;17.40;99.90
10905;DHT22;5505;51.450;9.254;2023-05-15T12:29:15;17.60;99.90
10905;DHT22;5505;51.450;9.254;2023-05-15T12:32:02;17.90;99.90
10905;DHT22;5505;51.450;9.254;2023-05-15T12:34:49;18.00;99.90
10905;DHT22;5505;51.450;9.254;2023-05-15T12:37:35;18.10;99.90
10905;DHT22;5505;51.450;9.254;2023-05-15T12:40:22;18.10;99.90
10905;DHT22;5505;51.450;9.254;2023-05-15T12:43:12;18.20;99.90
10905;DHT22;5505;51.450;9.254;2023-05-15T12:45:59;18.30;99.90
10905;DHT22;5505;51.450;9.254;2023-05-15T12:48:46;18.30;99.90
10905;DHT22;5505;51.450;9.254;2023-05-15T12:51:41;18.30;99.90
10905;DHT22;5505;51.450;9.254;2023-05-15T12:54:28;18.20;99.90
10905;DHT22;5505;51.450;9.254;2023-05-15T12:57:14;18.20;99.90
10905;DHT22;5505;51.450;9.254;2023-05-15T13:00:03;18.20;99.90
10905;DHT22;5505;51.450;9.254;2023-05-15T13:02:53;18.40;99.90
10905;DHT22;5505;51.450;9.254;2023-05-15T13:05:42;18.70;99.90
10905;DHT22;5505;51.450;9.254;2023-05-15T13:08:29;19.00;99.90
10905;DHT22;5505;51.450;9.254;2023-05-15T13:11:16;19.20;99.90
10905;DHT22;5505;51.450;9.254;2023-05-15T13:14:08;19.30;99.90
10905;DHT22;5505;51.450;9.254;2023-05-15T13:16:58;19.20;99.90
10905;DHT22;5505;51.450;9.254;2023-05-15T13:19:46;19.00;99.90
10905;DHT22;5505;51.450;9.254;2023-05-15T13:22:33;18.90;99.90
10905;DHT22;5505;51.450;9.254;2023-05-15T13:25:20;19.00;99.90
10905;DHT22;5505;51.450;9.254;2023-05-15T13:28:08;19.20;99.90
10905;DHT22;5505;51.450;9.254;2023-05-15T13:30:55;19.30;99.90
10905;DHT22;5505;51.450;9.254;2023-05-15T13:33:43;19.90;99.90
10905;DHT22;5505;51.450;9.254;2023-05-15T13:36:30;19.60;99.90
10905;DHT22;5505;51.450;9.254;2023-05-15T13:39:17;19.70;99.90
10905;DHT22;5505;51.450;9.254;2023-05-15T13:42:04;19.70;99.90
10905;DHT22;5505;51.450;9.254;2023-05-15T13:44:51;19.60;99.90
10905;DHT22;5505;51.450;9.254;2023-05-15T13:47:37;19.50;99.90
10905;DHT22;5505;51.450;9.254;2023-05-15T13:50:26;19.40;99.90
10905;DHT22;5505;51.450;9.254;2023-05-15T13:53:13;19.10;99.90
10905;DHT22;5505;51.450;9.254;2023-05-15T13:56:01;18.70;99.90
10905;DHT22;5505;51.450;9.254;2023-05-15T13:58:48;18.40;99.90
10905;DHT22;5505;51.450;9.254;2023-05-15T14:01:34;17.80;99.90
10905;DHT22;5505;51.450;9.254;2023-05-15T14:04:21;17.40;99.90
10905;DHT22;5505;51.450;9.254;2023-05-15T14:07:09;17.10;99.90
10905;DHT22;5505;51.450;9.254;2023-05-15T14:09:56;17.10;99.90
10905;DHT22;5505;51.450;9.254;2023-05-15T14:12:43;17.20;99.90
10905;DHT22;5505;51.450;9.254;2023-05-15T14:15:31;17.20;99.90
10905;DHT22;5505;51.450;9.254;2023-05-15T14:18:18;17.40;99.90
10905;DHT22;5505;51.450;9.254;2023-05-15T14:21:05;17.60;99.90
10905;DHT22;5505;51.450;9.254;2023-05-15T14:23:53;18.30;99.90
10905;DHT22;5505;51.450;9.254;2023-05-15T14:26:39;17.50;99.90
10905;DHT22;5505;51.450;9.254;2023-05-15T14:29:28;17.40;99.90
10905;DHT22;5505;51.450;9.254;2023-05-15T14:32:15;17.40;99.90
10905;DHT22;5505;51.450;9.254;2023-05-15T14:35:02;17.30;99.90
10905;DHT22;5505;51.450;9.254;2023-05-15T14:37:49;17.20;99.90
10905;DHT22;5505;51.450;9.254;2023-05-15T14:40:37;17.10;99.90
10905;DHT22;5505;51.450;9.254;2023-05-15T14:43:24;17.00;99.90
10905;DHT22;5505;51.450;9.254;2023-05-15T14:46:11;16.90;99.90
10905;DHT22;5505;51.450;9.254;2023-05-15T14:48:58;16.90;99.90
10905;DHT22;5505;51.450;9.254;2023-05-15T14:51:44;16.70;99.90
10905;DHT22;5505;51.450;9.254;2023-05-15T14:54:31;16.70;99.90
10905;DHT22;5505;51.450;9.254;2023-05-15T14:57:21;16.60;99.90
10905;DHT22;5505;51.450;9.254;2023-05-15T15:00:08;16.60;99.90
10905;DHT22;5505;51.450;9.254;2023-05-15T15:02:55;16.60;99.90
10905;DHT22;5505;51.450;9.254;2023-05-15T15:05:43;16.50;99.90
10905;DHT22;5505;51.450;9.254;2023-05-15T15:08:30;16.60;99.90
10905;DHT22;5505;51.450;9.254;2023-05-15T15:11:17;16.50;99.90
10905;DHT22;5505;51.450;9.254;2023-05-15T15:14:07;16.50;99.90
10905;DHT22;5505;51.450;9.254;2023-05-15T15:16:53;16.60;99.90
10905;DHT22;5505;51.450;9.254;2023-05-15T15:19:41;16.60;99.90
10905;DHT22;5505;51.450;9.254;2023-05-15T15:22:27;16.60;99.90
10905;DHT22;5505;51.450;9.254;2023-05-15T15:25:14;16.60;99.90
10905;DHT22;5505;51.450;9.254;2023-05-15T15:28:01;16.60;99.90
10905;DHT22;5505;51.450;9.254;2023-05-15T15:30:51;16.30;99.90
10905;DHT22;5505;51.450;9.254;2023-05-15T15:33:37;16.40;99.90
10905;DHT22;5505;51.450;9.254;2023-05-15T15:36:24;16.30;99.90
10905;DHT22;5505;51.450;9.254;2023-05-15T15:39:11;16.20;99.90
10905;DHT22;5505;51.450;9.254;2023-05-15T15:41:58;16.00;99.90
10905;DHT22;5505;51.450;9.254;2023-05-15T15:44:45;16.20;99.90
10905;DHT22;5505;51.450;9.254;2023-05-15T15:47:33;16.40;99.90
10905;DHT22;5505;51.450;9.254;2023-05-15T15:50:20;15.60;99.90
10905;DHT22;5505;51.450;9.254;2023-05-15T15:53:06;15.50;99.90
10905;DHT22;5505;51.450;9.254;2023-05-15T15:55:53;15.50;99.90
10905;DHT22;5505;51.450;9.254;2023-05-15T15:58:40;15.50;99.90
10905;DHT22;5505;51.450;9.254;2023-05-15T16:01:27;15.60;99.90
10905;DHT22;5505;51.450;9.254;2023-05-15T16:04:15;15.50;99.90
10905;DHT22;5505;51.450;9.254;2023-05-15T16:07:02;15.60;99.90
10905;DHT22;5505;51.450;9.254;2023-05-15T16:09:49;15.60;99.90
10905;DHT22;5505;51.450;9.254;2023-05-15T16:12:35;16.60;99.90
10905;DHT22;5505;51.450;9.254;2023-05-15T16:15:22;15.70;99.90
10905;DHT22;5505;51.450;9.254;2023-05-15T16:18:09;15.70;99.90
10905;DHT22;5505;51.450;9.254;2023-05-15T16:20:57;15.80;99.90
10905;DHT22;5505;51.450;9.254;2023-05-15T16:23:44;15.80;99.90
10905;DHT22;5505;51.450;9.254;2023-05-15T16:26:31;16.70;99.90
10905;DHT22;5505;51.450;9.254;2023-05-15T16:29:18;15.90;99.90
10905;DHT22;5505;51.450;9.254;2023-05-15T16:32:05;16.00;99.90
10905;DHT22;5505;51.450;9.254;2023-05-15T16:34:52;16.00;99.90
10905;DHT22;5505;51.450;9.254;2023-05-15T16:37:40;16.10;99.90
10905;DHT22;5505;51.450;9.254;2023-05-15T16:40:27;16.10;99.90
10905;DHT22;5505;51.450;9.254;2023-05-15T16:43:14;16.10;99.90
10905;DHT22;5505;51.450;9.254;2023-05-15T16:46:01;16.10;99.90
10905;DHT22;5505;51.450;9.254;2023-05-15T16:48:48;16.10;99.90
10905;DHT22;5505;51.450;9.254;2023-05-15T16:51:35;16.10;99.90
10905;DHT22;5505;51.450;9.254;2023-05-15T16:54:23;16.20;99.90
10905;DHT22;5505;51.450;9.254;2023-05-15T16:57:10;16.20;99.90
10905;DHT22;5505;51.450;9.254;2023-05-15T16:59:57;16.30;99.90
10905;DHT22;5505;51.450;9.254;2023-05-15T17:02:43;16.40;99.90
10905;DHT22;5505;51.450;9.254;2023-05-15T17:05:30;16.40;99.90
10905;DHT22;5505;51.450;9.254;2023-05-15T17:08:17;16.30;99.90
10905;DHT22;5505;51.450;9.254;2023-05-15T17:11:06;16.30;99.90
10905;DHT22;5505;51.450;9.254;2023-05-15T17:13:52;17.10;99.90
10905;DHT22;5505;51.450;9.254;2023-05-15T17:16:39;16.20;99.90
10905;DHT22;5505;51.450;9.254;2023-05-15T17:19:26;16.20;99.90
10905;DHT22;5505;51.450;9.254;2023-05-15T17:22:13;16.20;99.90
10905;DHT22;5505;51.450;9.254;2023-05-15T17:25:00;16.30;99.90
10905;DHT22;5505;51.450;9.254;2023-05-15T17:27:48;16.40;99.90
10905;DHT22;5505;51.450;9.254;2023-05-15T17:30:34;16.50;99.90
10905;DHT22;5505;51.450;9.254;2023-05-15T17:33:21;16.50;99.90
10905;DHT22;5505;51.450;9.254;2023-05-15T17:36:08;16.50;99.90
10905;DHT22;5505;51.450;9.254;2023-05-15T17:38:55;16.60;99.90
10905;DHT22;5505;51.450;9.254;2023-05-15T17:41:42;16.60;99.90
10905;DHT22;5505;51.450;9.254;2023-05-15T17:44:30;16.60;99.90
10905;DHT22;5505;51.450;9.254;2023-05-15T17:47:17;16.50;99.90
10905;DHT22;5505;51.450;9.254;2023-05-15T17:50:04;16.50;99.90
10905;DHT22;5505;51.450;9.254;2023-05-15T17:52:51;16.40;99.90
10905;DHT22;5505;51.450;9.254;2023-05-15T17:55:38;16.40;99.90
10905;DHT22;5505;51.450;9.254;2023-05-15T17:58:25;16.30;99.90
10905;DHT22;5505;51.450;9.254;2023-05-15T18:01:13;16.30;99.90
10905;DHT22;5505;51.450;9.254;2023-05-15T18:04:00;16.30;99.90